Time;durP1;ratioP1;P1;durP2;ratioP2;P2;SDS_P1;SDS_P2;PMS_P1;PMS_P2;Temp;Humidity;BMP_temperature;BMP_pressure;BME280_temperature;BME280_humidity;BME280_pressure;Samples;Min_cycle;Max_cycle;Signal;HPM_P1;HPM_P2
2021/04/01 00:02:06;;;;;;;22.63;11.00;;;;;;;8.65;100.00;96690.81;5029905;28;20080;-48
2021/04/01 00:04:34;;;;;;;18.52;10.13;;;;;;;8.76;100.00;96688.13;5012173;28;20065;-49
2021/04/01 00:07:01;;;;;;;20.08;10.15;;;;;;;8.78;100.00;96690.66;5028471;28;20288;-47
2021/04/01 00:09:29;;;;;;;14.55;9.30;;;;;;;8.78;100.00;96688.84;5001417;28;20119;-46
2021/04/01 00:11:57;;;;;;;20.35;10.25;;;;;;;8.73;100.00;96679.66;5034105;28;20061;-46
2021/04/01 00:14:25;;;;;;;16.30;9.60;;;;;;;8.72;100.00;96680.63;4981680;28;20527;-50
2021/04/01 00:16:53;;;;;;;15.60;9.70;;;;;;;8.67;100.00;96675.75;5041425;28;20088;-48
2021/04/01 00:19:23;;;;;;;20.85;9.93;;;;;;;8.59;100.00;96672.09;5031758;28;20069;-46
2021/04/01 00:21:50;;;;;;;15.43;9.27;;;;;;;8.53;100.00;96671.66;5027643;28;20065;-47
2021/04/01 00:24:18;;;;;;;19.75;10.18;;;;;;;8.52;100.00;96680.47;5033059;28;20111;-48
2021/04/01 00:26:46;;;;;;;21.58;9.65;;;;;;;8.70;100.00;96674.66;5012760;28;20087;-49
2021/04/01 00:29:14;;;;;;;21.17;10.27;;;;;;;8.67;100.00;96673.13;5029211;28;20108;-48
2021/04/01 00:31:41;;;;;;;15.52;9.65;;;;;;;8.63;100.00;96676.13;5007143;28;20073;-45
2021/04/01 00:34:09;;;;;;;17.45;9.98;;;;;;;8.66;100.00;96678.50;5037308;28;20069;-47
2021/04/01 00:36:36;;;;;;;18.00;10.10;;;;;;;8.67;100.00;96670.50;4997478;28;20073;-45
2021/04/01 00:39:04;;;;;;;15.95;9.60;;;;;;;8.67;100.00;96667.88;5038705;28;20054;-46
2021/04/01 00:41:31;;;;;;;17.92;9.02;;;;;;;8.71;100.00;96666.66;5012874;28;20065;-45
2021/04/01 00:44:03;;;;;;;15.45;9.10;;;;;;;8.70;100.00;96669.41;5013735;28;20514;-47
2021/04/01 00:46:31;;;;;;;19.10;9.73;;;;;;;8.71;100.00;96671.91;4986840;28;20069;-52
2021/04/01 00:48:58;;;;;;;17.58;9.90;;;;;;;8.66;100.00;96665.34;5022045;28;20069;-46
2021/04/01 00:51:26;;;;;;;19.90;9.73;;;;;;;8.72;100.00;96668.31;5004787;28;20416;-48
2021/04/01 00:53:54;;;;;;;20.77;8.70;;;;;;;8.76;100.00;96659.19;5035927;28;20511;-46
2021/04/01 00:56:24;;;;;;;16.98;9.95;;;;;;;8.82;100.00;96662.28;5004506;28;20071;-45
2021/04/01 00:58:52;;;;;;;16.85;9.50;;;;;;;8.85;100.00;96657.63;5038348;28;20069;-47
2021/04/01 01:01:32;;;;;;;16.48;9.20;;;;;;;8.89;100.00;96658.19;5001798;28;20372;-52
2021/04/01 01:03:59;;;;;;;15.40;9.90;;;;;;;8.87;100.00;96660.94;5022770;28;20057;-46
2021/04/01 01:06:26;;;;;;;20.65;9.55;;;;;;;8.78;100.00;96662.56;5016126;28;20069;-51
2021/04/01 01:08:54;;;;;;;22.20;9.70;;;;;;;8.78;100.00;96656.47;5021264;28;20065;-48
2021/04/01 01:11:22;;;;;;;21.38;9.75;;;;;;;8.82;100.00;96659.66;5019621;28;20089;-48
2021/04/01 01:13:49;;;;;;;18.27;10.05;;;;;;;8.80;100.00;96657.16;5035277;28;20080;-48
2021/04/01 01:16:17;;;;;;;15.93;9.48;;;;;;;8.76;100.00;96661.84;5028009;28;20503;-48
2021/04/01 01:18:45;;;;;;;16.95;9.45;;;;;;;8.70;100.00;96659.72;5000346;28;20072;-45
2021/04/01 01:21:13;;;;;;;19.05;10.10;;;;;;;8.75;100.00;96659.34;5038156;28;20471;-49
2021/04/01 01:23:41;;;;;;;19.27;10.02;;;;;;;8.75;100.00;96659.34;4997821;28;20077;-49
2021/04/01 01:26:10;;;;;;;19.88;9.52;;;;;;;8.70;100.00;96653.63;5029167;28;20076;-48
2021/04/01 01:28:38;;;;;;;15.80;9.90;;;;;;;8.70;100.00;96651.81;5008467;28;20060;-46
2021/04/01 01:31:05;;;;;;;20.27;9.80;;;;;;;8.68;100.00;96647.69;5026614;28;20064;-49
2021/04/01 01:33:39;;;;;;;19.20;9.82;;;;;;;8.51;100.00;96646.44;5000559;28;20064;-47
2021/04/01 01:36:08;;;;;;;21.50;9.20;;;;;;;8.46;100.00;96643.34;5035665;28;20087;-47
2021/04/01 01:38:35;;;;;;;16.80;9.43;;;;;;;8.16;100.00;96647.53;5008228;28;20077;-48
2021/04/01 01:41:03;;;;;;;17.77;9.77;;;;;;;8.24;100.00;96644.25;5043519;28;20488;-50
2021/04/01 01:43:32;;;;;;;21.00;10.07;;;;;;;7.94;100.00;96637.91;5003919;28;20123;-47
2021/04/01 01:46:00;;;;;;;15.70;9.35;;;;;;;8.22;100.00;96638.28;5034486;28;20072;-49
2021/04/01 01:48:27;;;;;;;18.75;9.43;;;;;;;7.97;100.00;96637.66;4994262;28;20064;-49
2021/04/01 01:50:58;;;;;;;15.95;10.27;;;;;;;7.76;100.00;96634.16;5023449;28;20084;-49
2021/04/01 01:53:26;;;;;;;16.77;9.20;;;;;;;7.93;100.00;96628.38;4999249;28;20077;-48
2021/04/01 01:55:53;;;;;;;17.48;9.45;;;;;;;7.91;100.00;96632.06;5035117;28;20060;-51
2021/04/01 01:58:22;;;;;;;21.55;9.88;;;;;;;7.81;100.00;96627.59;5002160;28;20102;-49
2021/04/01 02:00:53;;;;;;;15.90;9.10;;;;;;;7.89;100.00;96632.22;5027303;28;20097;-47
2021/04/01 02:03:23;;;;;;;16.48;8.70;;;;;;;7.92;100.00;96620.63;5017366;28;20065;-45
2021/04/01 02:05:51;;;;;;;14.68;8.95;;;;;;;7.88;100.00;96630.56;5019499;28;20061;-50
2021/04/01 02:08:19;;;;;;;16.48;9.52;;;;;;;7.89;100.00;96626.13;5018523;28;20077;-47
2021/04/01 02:10:48;;;;;;;16.85;9.00;;;;;;;7.79;100.00;96626.03;4997728;28;20220;-52
2021/04/01 02:13:17;;;;;;;16.50;9.07;;;;;;;7.86;100.00;96629.81;5023963;28;20129;-50
2021/04/01 02:15:46;;;;;;;15.55;9.00;;;;;;;7.85;100.00;96628.16;5010236;28;20120;-47
2021/04/01 02:18:16;;;;;;;18.70;9.13;;;;;;;7.78;100.00;96630.44;5024028;28;20076;-48
2021/04/01 02:20:46;;;;;;;16.20;9.53;;;;;;;7.83;100.00;96628.28;5002637;28;20076;-48
2021/04/01 02:23:15;;;;;;;17.88;8.63;;;;;;;7.81;100.00;96621.47;5028868;28;20054;-48
2021/04/01 02:25:44;;;;;;;17.38;8.52;;;;;;;7.80;100.00;96623.25;4996427;28;20067;-49
2021/04/01 02:28:13;;;;;;;16.65;9.07;;;;;;;7.77;100.00;96620.88;5025798;28;20077;-50
2021/04/01 02:30:42;;;;;;;17.50;10.02;;;;;;;7.77;100.00;96615.63;5006952;28;20095;-48
2021/04/01 02:33:10;;;;;;;16.53;8.87;;;;;;;7.80;100.00;96618.00;5024715;28;20061;-47
2021/04/01 02:35:39;;;;;;;14.98;9.15;;;;;;;7.86;100.00;96619.31;5005497;28;20095;-46
2021/04/01 02:38:07;;;;;;;17.20;9.23;;;;;;;7.83;100.00;96616.94;5029750;28;20085;-50
2021/04/01 02:40:35;;;;;;;17.73;9.77;;;;;;;7.84;100.00;96614.22;5000031;28;20057;-51
2021/04/01 02:43:03;;;;;;;17.05;9.35;;;;;;;7.83;100.00;96609.06;5029647;28;20065;-47
2021/04/01 02:45:31;;;;;;;15.73;8.98;;;;;;;7.81;100.00;96609.19;5003161;28;20065;-50
2021/04/01 02:47:58;;;;;;;19.60;8.93;;;;;;;7.77;100.00;96605.13;5014864;28;20668;-48
2021/04/01 02:50:25;;;;;;;22.45;9.07;;;;;;;7.81;100.00;96614.47;5002618;28;20081;-49
2021/04/01 02:52:54;;;;;;;12.60;8.35;;;;;;;7.78;100.00;96611.25;5019907;28;20069;-53
2021/04/01 02:55:21;;;;;;;14.65;8.85;;;;;;;7.70;100.00;96606.59;5030642;28;20076;-45
2021/04/01 02:57:49;;;;;;;15.23;9.10;;;;;;;7.73;100.00;96600.25;5016316;28;20601;-51
2021/04/01 03:00:19;;;;;;;15.07;8.80;;;;;;;7.71;100.00;96599.53;5031733;28;20073;-48
2021/04/01 03:02:51;;;;;;;16.20;8.80;;;;;;;7.65;100.00;96600.88;5018774;28;20080;-49
2021/04/01 03:05:19;;;;;;;16.88;9.38;;;;;;;7.54;100.00;96604.38;5031342;28;20103;-49
2021/04/01 03:07:47;;;;;;;20.10;9.50;;;;;;;7.46;100.00;96604.13;5006152;28;20531;-47
2021/04/01 03:10:15;;;;;;;19.48;9.80;;;;;;;7.40;100.00;96599.38;5034293;28;20087;-49
2021/04/01 03:12:42;;;;;;;18.30;8.68;;;;;;;7.35;100.00;96597.13;5004026;28;20443;-49
2021/04/01 03:15:11;;;;;;;12.68;8.27;;;;;;;7.35;100.00;96610.22;5039575;28;20084;-48
2021/04/01 03:17:40;;;;;;;14.45;7.93;;;;;;;7.43;100.00;96604.38;5011497;28;20092;-49
2021/04/01 03:20:09;;;;;;;15.48;9.07;;;;;;;7.43;100.00;96603.53;5028343;28;20085;-53
2021/04/01 03:22:38;;;;;;;17.58;8.43;;;;;;;7.34;100.00;96603.31;4997118;28;20065;-51
2021/04/01 03:25:08;;;;;;;14.55;8.02;;;;;;;7.40;100.00;96603.78;5023433;28;20476;-50
2021/04/01 03:27:36;;;;;;;15.40;8.40;;;;;;;7.38;100.00;96604.75;4999921;28;20073;-50
2021/04/01 03:30:06;;;;;;;13.60;8.57;;;;;;;7.48;100.00;96602.22;5031115;28;20077;-49
2021/04/01 03:32:34;;;;;;;13.55;8.60;;;;;;;7.36;100.00;96608.44;5007743;28;20076;-47
2021/04/01 03:35:02;;;;;;;13.95;8.10;;;;;;;7.46;100.00;96603.31;5024773;28;20424;-50
2021/04/01 03:37:30;;;;;;;15.68;8.07;;;;;;;7.47;100.00;96603.19;5003367;28;20069;-49
2021/04/01 03:39:57;;;;;;;17.55;8.13;;;;;;;7.55;100.00;96597.31;5022098;28;20080;-57
2021/04/01 03:42:25;;;;;;;20.08;8.77;;;;;;;7.57;100.00;96598.03;4998402;28;20528;-47
2021/04/01 03:44:53;;;;;;;20.80;8.10;;;;;;;7.48;100.00;96594.34;5027374;28;20093;-52
2021/04/01 03:47:21;;;;;;;16.05;8.18;;;;;;;7.56;100.00;96591.13;5026593;28;20092;-50
2021/04/01 03:49:48;;;;;;;13.18;8.45;;;;;;;7.56;100.00;96594.56;5016012;28;20068;-50
2021/04/01 03:52:16;;;;;;;20.17;8.27;;;;;;;7.71;100.00;96597.78;5025276;28;20081;-49
2021/04/01 03:54:48;;;;;;;13.00;7.53;;;;;;;7.75;100.00;96596.56;5003531;28;20065;-49
2021/04/01 03:57:16;;;;;;;14.02;7.90;;;;;;;7.71;100.00;96594.28;5033498;28;20069;-48
2021/04/01 03:59:47;;;;;;;16.90;8.82;;;;;;;7.75;100.00;96596.56;4999851;28;20077;-51
2021/04/01 04:02:31;;;;;;;16.05;7.53;;;;;;;7.71;100.00;96596.91;5026113;28;20077;-50
2021/04/01 04:13:18;;;;;;;13.63;7.18;;;;;;;7.67;100.00;96596.34;5021519;28;20473;-48
2021/04/01 04:15:45;;;;;;;14.18;7.80;;;;;;;7.79;100.00;96584.84;4995652;28;20542;-50
2021/04/01 04:18:13;;;;;;;15.60;7.57;;;;;;;7.72;100.00;96583.69;5026256;28;20065;-50
2021/04/01 04:20:41;;;;;;;17.15;8.55;;;;;;;7.68;100.00;96581.44;5003050;28;20100;-46
2021/04/01 04:23:10;;;;;;;14.20;7.75;;;;;;;7.63;100.00;96575.72;5026285;28;20081;-50
2021/04/01 04:25:38;;;;;;;21.73;8.50;;;;;;;7.69;100.00;96577.84;4998976;28;20077;-47
2021/04/01 04:28:18;;;;;;;15.52;7.85;;;;;;;7.52;100.00;96580.03;5019909;28;20624;-52
2021/04/01 04:30:45;;;;;;;16.98;7.95;;;;;;;7.59;100.00;96580.38;4998962;28;20065;-50
2021/04/01 04:33:14;;;;;;;16.38;7.57;;;;;;;7.64;100.00;96582.63;5020638;28;20076;-52
2021/04/01 04:35:41;;;;;;;13.05;7.55;;;;;;;7.56;100.00;96588.50;5008551;28;20081;-53
2021/04/01 04:38:08;;;;;;;12.77;7.85;;;;;;;7.31;100.00;96589.63;5033053;28;20072;-50
2021/04/01 04:40:36;;;;;;;16.40;7.65;;;;;;;7.44;100.00;96579.00;4999086;28;20072;-49
2021/04/01 04:43:03;;;;;;;11.20;7.50;;;;;;;7.47;100.00;96587.44;5021205;28;20069;-54
2021/04/01 04:45:31;;;;;;;13.88;8.02;;;;;;;7.48;100.00;96588.28;4993907;28;20065;-53
2021/04/01 04:47:58;;;;;;;15.13;7.97;;;;;;;7.47;100.00;96587.44;5035449;28;20064;-48
2021/04/01 04:50:26;;;;;;;14.70;7.07;;;;;;;7.47;100.00;96587.44;5010039;28;20076;-53
2021/04/01 04:52:54;;;;;;;14.07;7.65;;;;;;;7.47;100.00;96590.06;5037532;28;20099;-47
2021/04/01 04:55:22;;;;;;;14.55;7.55;;;;;;;7.53;100.00;96588.72;5008536;28;22890;-47
2021/04/01 04:57:54;;;;;;;13.90;7.00;;;;;;;7.59;100.00;96588.25;5021068;28;20132;-51
2021/04/01 05:06:04;;;;;;;18.02;7.95;;;;;;;7.76;100.00;96600.03;4997335;28;20069;-48
2021/04/01 05:08:32;;;;;;;18.33;7.45;;;;;;;7.87;100.00;96597.34;5032793;28;20076;-50
2021/04/01 05:10:59;;;;;;;13.75;7.70;;;;;;;7.97;100.00;96597.44;5003974;28;20086;-47
2021/04/01 05:13:27;;;;;;;28.90;7.18;;;;;;;8.05;100.00;96595.00;5027998;28;20061;-48
2021/04/01 05:15:55;;;;;;;91.50;12.95;;;;;;;8.14;100.00;96599.53;5013470;28;20069;-48
2021/04/01 05:18:27;;;;;;;53.40;9.15;;;;;;;8.25;100.00;96594.22;5032772;28;20072;-52
2021/04/01 05:20:55;;;;;;;36.33;7.97;;;;;;;8.35;100.00;96596.09;5021224;28;20079;-50
2021/04/01 05:23:30;;;;;;;16.80;6.20;;;;;;;8.52;100.00;96600.78;5015144;28;20080;-51
2021/04/01 05:28:49;;;;;;;20.83;7.18;;;;;;;8.83;100.00;96598.22;4990243;28;20079;-54
2021/04/01 05:31:28;;;;;;;11.85;6.57;;;;;;;8.97;100.00;96600.50;5014752;28;20075;-49
2021/04/01 05:33:57;;;;;;;24.70;7.22;;;;;;;9.04;100.00;96602.47;5030506;28;20061;-49
2021/04/01 05:36:26;;;;;;;21.42;7.20;;;;;;;9.26;100.00;96598.84;5030040;28;20084;-48
2021/04/01 05:38:55;;;;;;;23.35;6.97;;;;;;;9.30;100.00;96593.31;5017679;28;20312;-49
2021/04/01 05:41:25;;;;;;;12.95;6.88;;;;;;;9.46;100.00;96591.84;5022766;28;20461;-48
2021/04/01 05:43:59;;;;;;;19.05;6.93;;;;;;;9.57;100.00;96593.53;4997747;28;20083;-49
2021/04/01 05:46:32;;;;;;;32.08;7.75;;;;;;;9.71;100.00;96602.84;5038016;28;20087;-46
2021/04/01 05:49:08;;;;;;;26.73;6.78;;;;;;;9.85;100.00;96596.34;4998092;28;20127;-50
2021/04/01 06:00:30;;;;;;;17.70;6.85;;;;;;;10.42;100.00;96595.53;5015859;28;20073;-49
2021/04/01 06:03:14;;;;;;;12.23;6.72;;;;;;;10.57;100.00;96598.59;4986668;28;20077;-52
2021/04/01 06:05:43;;;;;;;14.38;6.63;;;;;;;10.65;100.00;96597.88;5038382;28;20068;-49
2021/04/01 06:08:14;;;;;;;13.32;6.00;;;;;;;10.76;100.00;96600.34;4998160;28;22628;-50
2021/04/01 06:10:43;;;;;;;13.52;5.95;;;;;;;10.55;100.00;96603.16;5032065;28;20080;-48
2021/04/01 06:13:12;;;;;;;17.92;5.72;;;;;;;10.75;100.00;96613.69;5007419;28;20091;-49
2021/04/01 06:15:40;;;;;;;13.43;5.63;;;;;;;10.63;100.00;96613.00;5022194;28;20530;-47
2021/04/01 06:18:11;;;;;;;10.88;5.50;;;;;;;10.78;100.00;96616.88;5031134;28;20069;-49
2021/04/01 06:20:41;;;;;;;11.75;6.25;;;;;;;11.10;100.00;96611.22;5016760;28;20068;-49
2021/04/01 06:23:11;;;;;;;10.90;5.63;;;;;;;11.30;99.88;96609.34;5032180;28;20064;-47
2021/04/01 06:25:40;;;;;;;10.95;5.13;;;;;;;11.11;100.00;96614.69;5016047;28;20458;-46
2021/04/01 06:28:13;;;;;;;10.68;5.60;;;;;;;11.53;100.00;96609.81;5024382;28;20069;-48
2021/04/01 06:30:47;;;;;;;11.18;5.88;;;;;;;11.82;98.18;96608.81;5003115;28;20088;-49
2021/04/01 06:33:19;;;;;;;12.65;5.25;;;;;;;11.92;93.81;96611.44;5035707;28;20567;-47
2021/04/01 06:35:50;;;;;;;10.63;5.32;;;;;;;11.90;94.79;96619.50;4999806;28;20526;-48
2021/04/01 06:38:26;;;;;;;13.75;5.32;;;;;;;11.87;98.20;96606.56;5034726;28;20459;-48
2021/04/01 06:40:57;;;;;;;9.70;4.80;;;;;;;12.38;95.33;96609.53;5005192;28;20071;-47
2021/04/01 06:43:43;;;;;;;11.23;5.55;;;;;;;12.21;94.77;96612.03;5025505;28;20502;-47
2021/04/01 06:46:10;;;;;;;9.63;4.88;;;;;;;12.45;95.35;96618.53;4997653;28;20063;-55
2021/04/01 06:51:49;;;;;;;14.90;4.65;;;;;;;13.11;82.98;96612.75;5002797;28;20064;-50
2021/04/01 06:54:24;;;;;;;10.55;4.53;;;;;;;12.87;83.30;96621.38;5029456;28;20069;-52
2021/04/01 06:57:26;;;;;;;13.27;4.63;;;;;;;13.30;79.13;96612.53;5039282;28;20054;-50
2021/04/01 07:00:30;;;;;;;7.10;4.55;;;;;;;13.17;81.74;96614.75;4997598;28;20065;-48
2021/04/01 07:03:13;;;;;;;10.65;4.90;;;;;;;13.67;77.47;96606.09;5031907;28;20072;-54
2021/04/01 07:05:51;;;;;;;12.25;4.50;;;;;;;13.58;79.86;96608.84;5002445;28;20046;-52
2021/04/01 07:08:24;;;;;;;9.73;4.82;;;;;;;14.01;76.83;96611.31;5038524;28;20079;-53
2021/04/01 07:10:54;;;;;;;9.20;4.43;;;;;;;14.49;72.97;96611.56;5000877;28;20077;-50
2021/04/01 07:13:30;;;;;;;10.23;4.47;;;;;;;14.61;70.94;96599.63;5012111;28;20072;-50
2021/04/01 07:16:20;;;;;;;20.70;4.80;;;;;;;14.60;70.18;96605.13;5004282;28;20080;-46
2021/04/01 07:35:58;;;;;;;11.40;4.63;;;;;;;15.57;56.61;96605.91;5032154;28;20518;-47
2021/04/01 07:44:50;;;;;;;9.85;4.00;;;;;;;15.78;53.93;96595.56;5017947;28;20454;-50
2021/04/01 07:47:20;;;;;;;8.52;4.18;;;;;;;15.96;53.54;96595.28;5017005;28;20480;-49
2021/04/01 07:49:50;;;;;;;9.65;4.47;;;;;;;15.94;51.45;96588.50;5033038;28;20061;-47
2021/04/01 07:52:18;;;;;;;;;;;;;;;16.24;52.17;96581.47;5009503;28;20084;-49
2021/04/01 07:55:03;;;;;;;8.85;4.07;;;;;;;16.22;50.97;96576.34;5024110;28;20389;-49
2021/04/01 08:00:34;;;;;;;9.00;4.13;;;;;;;16.33;51.08;96586.56;5007273;28;20059;-53
2021/04/01 08:03:08;;;;;;;7.65;4.65;;;;;;;16.31;51.12;96585.94;5009707;28;20069;-51
2021/04/01 08:05:41;;;;;;;12.45;5.40;;;;;;;16.65;49.16;96591.81;5039891;28;20403;-55
2021/04/01 08:08:11;;;;;;;12.25;5.35;;;;;;;16.59;50.78;96588.88;4997414;28;20147;-47
2021/04/01 08:10:42;;;;;;;9.18;4.50;;;;;;;16.96;50.79;96589.91;5031800;28;20109;-48
2021/04/01 08:13:13;;;;;;;13.05;4.78;;;;;;;16.73;49.62;96589.94;5006685;28;20069;-49
2021/04/01 08:15:44;;;;;;;12.35;4.32;;;;;;;16.75;49.41;96592.44;5032267;28;20060;-50
2021/04/01 08:18:18;;;;;;;14.82;6.00;;;;;;;17.02;47.80;96586.50;5011049;28;20073;-50
2021/04/01 08:20:52;;;;;;;13.20;5.85;;;;;;;17.14;49.07;96592.25;5041492;28;20466;-48
2021/04/01 08:23:44;;;;;;;14.25;6.03;;;;;;;17.27;48.87;96591.59;5000294;28;20456;-45
2021/04/01 08:26:43;;;;;;;13.82;5.25;;;;;;;17.52;48.57;96584.16;5019242;28;20045;-46
2021/04/01 08:30:27;;;;;;;17.58;6.50;;;;;;;17.81;47.51;96580.66;4992635;28;20124;-51
2021/04/01 08:33:16;;;;;;;13.30;6.28;;;;;;;17.92;46.73;96576.66;5028877;28;20485;-48
2021/04/01 08:36:06;;;;;;;16.52;6.47;;;;;;;18.15;46.73;96580.00;5012916;28;20551;-55
2021/04/01 08:38:54;;;;;;;12.43;6.00;;;;;;;17.96;46.16;96573.44;4985727;28;20523;-49
2021/04/01 08:42:09;;;;;;;13.35;6.65;;;;;;;18.41;45.64;96570.59;5030462;28;20520;-56
2021/04/01 08:45:07;;;;;;;16.70;6.55;;;;;;;18.65;45.68;96561.38;5008788;28;20065;-48
2021/04/01 08:48:02;;;;;;;12.02;6.40;;;;;;;19.00;45.38;96558.81;5016597;28;20045;-50
2021/04/01 08:50:33;;;;;;;16.25;7.00;;;;;;;19.02;44.61;96560.25;4997478;28;20127;-46
2021/04/01 08:53:27;;;;;;;15.68;7.40;;;;;;;18.93;44.61;96554.25;5030761;28;20081;-52
2021/04/01 08:56:08;;;;;;;19.45;7.65;;;;;;;19.25;44.89;96556.50;4987617;28;20083;-50
2021/04/01 08:59:01;;;;;;;15.50;7.38;;;;;;;19.39;43.67;96564.38;5031744;28;20056;-48
2021/04/01 09:01:30;;;;;;;16.17;6.72;;;;;;;19.11;44.53;96556.41;4989101;28;20065;-51
2021/04/01 09:03:59;;;;;;;13.18;7.07;;;;;;;19.50;42.66;96548.81;5042755;28;20064;-51
2021/04/01 09:06:31;;;;;;;16.40;7.30;;;;;;;19.45;42.68;96552.09;5001995;28;20060;-51
2021/04/01 09:09:06;;;;;;;13.95;7.65;;;;;;;19.62;41.96;96553.41;5029423;28;20675;-53
2021/04/01 09:11:45;;;;;;;16.92;7.05;;;;;;;20.08;40.73;96551.94;5008401;28;20082;-53
2021/04/01 09:14:22;;;;;;;16.67;7.28;;;;;;;20.15;40.92;96556.28;5023029;28;20647;-55
2021/04/01 09:17:06;;;;;;;19.97;7.10;;;;;;;20.19;41.05;96551.34;5004107;28;20076;-53
2021/04/01 09:19:35;;;;;;;16.55;7.50;;;;;;;20.32;41.45;96545.19;5019863;28;20621;-51
2021/04/01 09:22:03;;;;;;;16.38;7.78;;;;;;;20.61;38.98;96541.31;5012002;28;20072;-49
2021/04/01 09:24:33;;;;;;;20.52;7.15;;;;;;;20.49;39.45;96540.28;5026325;28;20072;-52
2021/04/01 09:27:01;;;;;;;17.30;7.68;;;;;;;20.55;39.76;96547.53;5001456;28;20069;-50
2021/04/01 09:29:39;;;;;;;17.40;7.50;;;;;;;21.05;39.20;96538.00;5041698;28;20107;-52
2021/04/01 09:32:08;;;;;;;17.23;7.80;;;;;;;20.84;38.28;96536.38;5000610;28;20324;-53
2021/04/01 09:34:37;;;;;;;17.17;8.43;;;;;;;20.99;38.41;96544.22;5032379;28;20068;-54
2021/04/01 09:37:13;;;;;;;19.35;7.90;;;;;;;20.91;39.23;96538.22;4996143;28;20071;-49
2021/04/01 09:39:42;;;;;;;15.90;7.78;;;;;;;21.30;38.44;96535.50;5022691;28;20072;-51
2021/04/01 09:42:11;;;;;;;16.60;7.78;;;;;;;21.60;38.26;96537.69;5002730;28;20508;-56
2021/04/01 09:44:50;;;;;;;14.43;7.65;;;;;;;21.67;38.00;96530.44;5023963;28;20081;-48
2021/04/01 09:47:28;;;;;;;18.75;7.13;;;;;;;21.58;38.00;96536.28;5006308;28;20089;-53
2021/04/01 09:50:03;;;;;;;17.80;8.27;;;;;;;22.10;37.74;96531.69;5033631;28;20076;-53
2021/04/01 09:52:31;;;;;;;15.57;7.38;;;;;;;21.62;37.23;96526.75;5008767;28;20076;-49
2021/04/01 09:55:01;;;;;;;16.95;8.35;;;;;;;21.93;37.00;96529.50;5023194;28;20065;-46
2021/04/01 09:57:43;;;;;;;18.65;7.50;;;;;;;22.35;38.08;96521.03;5007839;28;20519;-54
2021/04/01 10:00:29;;;;;;;22.98;9.13;;;;;;;22.14;36.60;96522.97;5040827;28;20069;-56
2021/04/01 10:03:22;;;;;;;17.17;7.22;;;;;;;22.17;37.30;96521.75;5002164;28;20460;-57
2021/04/01 10:05:52;;;;;;;15.32;7.28;;;;;;;22.64;37.23;96509.66;5025080;28;20076;-52
2021/04/01 10:08:24;;;;;;;17.50;8.37;;;;;;;22.62;35.72;96516.28;5003348;28;20088;-50
2021/04/01 10:10:55;;;;;;;21.25;8.38;;;;;;;22.38;35.83;96513.34;5033372;28;20072;-51
2021/04/01 10:13:24;;;;;;;16.60;8.00;;;;;;;22.60;36.59;96502.22;5003820;28;20076;-54
2021/04/01 10:15:54;;;;;;;16.50;8.55;;;;;;;22.26;36.65;96505.19;5034907;28;20515;-55
2021/04/01 10:18:26;;;;;;;19.05;8.60;;;;;;;22.75;35.31;96498.16;5003684;28;20698;-53
2021/04/01 10:21:00;;;;;;;19.02;7.63;;;;;;;23.02;33.68;96497.13;5031113;28;20088;-54
2021/04/01 10:23:27;;;;;;;15.77;7.55;;;;;;;22.79;34.42;96489.66;5010444;28;20107;-55
2021/04/01 10:26:06;;;;;;;18.35;8.35;;;;;;;23.31;34.59;96500.97;5022297;28;20069;-50
2021/04/01 10:28:45;;;;;;;15.88;7.75;;;;;;;22.97;33.96;96493.22;4994454;28;20068;-53
2021/04/01 10:31:15;;;;;;;14.63;6.80;;;;;;;23.82;34.26;96481.72;5011552;28;20511;-53
2021/04/01 10:33:53;;;;;;;15.50;7.57;;;;;;;23.95;34.06;96480.72;4997431;28;20069;-50
2021/04/01 10:36:26;;;;;;;15.13;7.25;;;;;;;23.72;32.74;96481.44;5020785;28;20065;-50
2021/04/01 10:39:00;;;;;;;23.58;8.40;;;;;;;23.76;32.63;96479.94;5007744;28;20081;-50
2021/04/01 10:41:29;;;;;;;14.00;6.40;;;;;;;23.55;33.51;96477.69;5024957;28;20073;-48
2021/04/01 10:44:00;;;;;;;13.48;7.05;;;;;;;23.98;32.81;96468.66;5011362;28;20096;-53
2021/04/01 10:46:29;;;;;;;17.13;8.45;;;;;;;24.08;32.35;96463.53;5035693;28;20075;-51
2021/04/01 10:49:01;;;;;;;13.02;6.80;;;;;;;23.87;33.16;96460.31;5002722;28;20087;-52
2021/04/01 10:51:28;;;;;;;17.35;7.70;;;;;;;23.66;31.64;96463.47;5020684;28;20361;-49
2021/04/01 10:54:16;;;;;;;14.30;7.20;;;;;;;24.27;32.57;96453.53;5007938;28;22368;-53
2021/04/01 10:56:49;;;;;;;14.23;6.93;;;;;;;24.02;32.32;96448.28;5029079;28;20134;-51
2021/04/01 10:59:16;;;;;;;14.90;7.50;;;;;;;24.04;31.01;96452.41;5015373;28;20081;-51
2021/04/01 11:01:44;;;;;;;12.63;5.93;;;;;;;24.07;30.63;96443.03;5043360;28;20068;-55
2021/04/01 11:04:13;;;;;;;13.45;6.40;;;;;;;24.06;30.84;96438.72;5025753;28;20073;-52
2021/04/01 11:06:41;;;;;;;14.63;6.47;;;;;;;23.52;30.67;96435.91;5003305;28;20066;-51
2021/04/01 11:09:10;;;;;;;11.48;6.15;;;;;;;23.56;31.16;96436.25;5025301;28;20065;-53
2021/04/01 11:14:24;;;;;;;14.45;6.72;;;;;;;24.43;30.65;96436.69;5040127;28;20463;-52
2021/04/01 11:16:53;;;;;;;14.23;6.95;;;;;;;24.79;29.65;96432.13;5012774;28;20079;-49
2021/04/01 11:19:21;;;;;;;11.38;6.53;;;;;;;24.75;30.28;96429.09;5030721;28;20064;-51
2021/04/01 11:21:49;;;;;;;15.93;7.50;;;;;;;24.72;30.11;96426.03;5004977;28;20152;-50
2021/04/01 11:24:28;;;;;;;15.63;7.18;;;;;;;24.53;30.93;96414.53;5029590;28;20468;-48
2021/04/01 11:26:56;;;;;;;15.27;8.15;;;;;;;24.43;29.67;96425.91;5004343;28;20077;-56
2021/04/01 11:29:30;;;;;;;15.10;8.00;;;;;;;24.59;29.65;96419.81;5025801;28;20515;-48
2021/04/01 11:32:13;;;;;;;13.82;7.25;;;;;;;24.56;30.82;96414.91;5001566;28;20531;-57
2021/04/01 11:34:43;;;;;;;14.80;8.40;;;;;;;24.31;31.19;96414.28;5019184;28;20065;-52
2021/04/01 11:37:12;;;;;;;14.77;8.07;;;;;;;24.16;30.60;96406.63;5016388;28;20076;-53
2021/04/01 11:39:40;;;;;;;12.73;7.75;;;;;;;24.42;30.45;96407.28;5031580;28;20113;-54
2021/04/01 11:42:09;;;;;;;18.77;8.82;;;;;;;24.90;29.87;96396.22;5006359;28;20068;-51
2021/04/01 11:44:39;;;;;;;20.15;8.75;;;;;;;25.03;29.95;96395.97;5042007;28;20072;-54
2021/04/01 11:47:15;;;;;;;12.35;7.22;;;;;;;25.05;29.68;96390.34;5001799;28;20078;-54
2021/04/01 11:49:43;;;;;;;14.90;7.50;;;;;;;25.16;30.21;96386.03;5036966;28;20440;-55
2021/04/01 11:52:12;;;;;;;13.10;7.30;;;;;;;25.53;28.99;96389.16;4998507;28;20069;-55
2021/04/01 11:54:39;;;;;;;13.38;7.55;;;;;;;25.73;28.68;96394.13;5026847;28;20072;-49
2021/04/01 11:57:19;;;;;;;11.32;7.07;;;;;;;25.84;28.15;96384.34;5010236;28;20076;-52
2021/04/01 11:59:54;;;;;;;13.85;7.40;;;;;;;25.08;27.94;96379.88;5034443;28;20069;-48
2021/04/01 12:02:24;;;;;;;13.95;7.40;;;;;;;25.50;28.68;96381.56;5003836;28;20077;-50
2021/04/01 12:04:54;;;;;;;13.57;7.82;;;;;;;25.34;28.33;96373.16;5033154;28;20255;-51
2021/04/01 12:07:22;;;;;;;16.63;8.32;;;;;;;25.38;28.45;96378.91;5005464;28;20463;-51
2021/04/01 12:09:50;;;;;;;17.50;8.45;;;;;;;25.06;29.28;96376.63;5023061;28;20072;-54
2021/04/01 12:12:31;;;;;;;11.50;6.78;;;;;;;25.25;27.75;96366.50;5015978;28;20088;-56
2021/04/01 12:15:00;;;;;;;11.65;6.60;;;;;;;25.56;29.12;96364.38;5034538;28;20158;-54
2021/04/01 12:17:35;;;;;;;12.77;7.72;;;;;;;25.83;28.29;96361.13;5012092;28;20104;-53
2021/04/01 12:20:05;;;;;;;11.18;6.10;;;;;;;25.49;27.71;96361.81;5040822;28;20465;-51
2021/04/01 12:22:36;;;;;;;15.25;6.63;;;;;;;25.45;27.77;96354.47;4999362;28;20064;-54
2021/04/01 12:25:08;;;;;;;12.82;6.75;;;;;;;25.27;28.78;96356.28;5031813;28;20065;-51
2021/04/01 12:27:35;;;;;;;12.43;7.10;;;;;;;25.59;28.49;96347.69;5010991;28;20057;-52
2021/04/01 12:30:05;;;;;;;12.63;7.05;;;;;;;25.26;27.95;96346.56;5022513;28;20508;-52
2021/04/01 12:32:35;;;;;;;12.85;7.25;;;;;;;25.14;28.20;96339.56;5033354;28;20520;-51
2021/04/01 12:35:12;;;;;;;18.77;7.05;;;;;;;25.84;29.13;96338.44;5013326;28;21370;-52
2021/04/01 12:37:40;;;;;;;12.18;6.80;;;;;;;25.92;27.87;96330.75;5025090;28;20080;-57
2021/04/01 12:40:16;;;;;;;11.07;6.53;;;;;;;25.79;28.29;96331.88;5004335;28;20072;-56
2021/04/01 12:42:45;;;;;;;13.27;6.55;;;;;;;25.85;27.59;96329.28;5035307;28;20057;-53
2021/04/01 12:45:19;;;;;;;13.05;6.00;;;;;;;25.75;28.69;96321.78;4995067;28;20056;-56